sensor_id;sensor_type;location;lat;lon;timestamp;pressure;altitude;pressure_sealevel;temperature;humidity
70370;BME280;57790;51.356;-2.906;2023-02-02T00:01:20;103031.53;;;10.31;100.00
70370;BME280;57790;51.356;-2.906;2023-02-02T00:04:24;103037.69;;;10.31;100.00
70370;BME280;57790;51.356;-2.906;2023-02-02T00:07:25;103047.31;;;10.32;100.00
70370;BME280;57790;51.356;-2.906;2023-02-02T00:10:25;103043.81;;;10.32;100.00
70370;BME280;57790;51.356;-2.906;2023-02-02T00:13:26;103036.94;;;10.29;100.00
70370;BME280;57790;51.356;-2.906;2023-02-02T00:19:28;103029.94;;;10.28;100.00
70370;BME280;57790;51.356;-2.906;2023-02-02T00:22:29;103029.16;;;10.26;100.00
70370;BME280;57790;51.356;-2.906;2023-02-02T00:25:30;103030.97;;;10.26;100.00
70370;BME280;57790;51.356;-2.906;2023-02-02T00:28:30;103030.13;;;10.25;100.00
70370;BME280;57790;51.356;-2.906;2023-02-02T00:31:30;103024.94;;;10.24;100.00
70370;BME280;57790;51.356;-2.906;2023-02-02T00:34:31;103025.78;;;10.24;100.00
70370;BME280;57790;51.356;-2.906;2023-02-02T00:37:31;103035.41;;;10.25;100.00
70370;BME280;57790;51.356;-2.906;2023-02-02T00:40:32;103030.97;;;10.26;100.00
70370;BME280;57790;51.356;-2.906;2023-02-02T00:43:32;103023.97;;;10.25;100.00
70370;BME280;57790;51.356;-2.906;2023-02-02T00:46:33;103019.50;;;10.25;100.00
70370;BME280;57790;51.356;-2.906;2023-02-02T00:49:33;103007.97;;;10.26;100.00
70370;BME280;57790;51.356;-2.906;2023-02-02T00:52:34;103007.22;;;10.24;100.00
70370;BME280;57790;51.356;-2.906;2023-02-02T00:55:34;103002.66;;;10.26;100.00
70370;BME280;57790;51.356;-2.906;2023-02-02T00:58:35;103007.97;;;10.26;100.00
70370;BME280;57790;51.356;-2.906;2023-02-02T01:01:35;103006.38;;;10.24;100.00
70370;BME280;57790;51.356;-2.906;2023-02-02T01:04:36;103001.06;;;10.24;100.00
70370;BME280;57790;51.356;-2.906;2023-02-02T01:07:37;103006.47;;;10.22;100.00
70370;BME280;57790;51.356;-2.906;2023-02-02T01:10:38;103008.28;;;10.22;100.00
70370;BME280;57790;51.356;-2.906;2023-02-02T01:13:38;103009.03;;;10.24;100.00
70370;BME280;57790;51.356;-2.906;2023-02-02T01:16:38;103004.47;;;10.26;100.00
70370;BME280;57790;51.356;-2.906;2023-02-02T01:19:39;103015.28;;;10.23;100.00
70370;BME280;57790;51.356;-2.906;2023-02-02T01:22:40;103020.69;;;10.21;100.00
70370;BME280;57790;51.356;-2.906;2023-02-02T01:25:40;103013.47;;;10.23;100.00
70370;BME280;57790;51.356;-2.906;2023-02-02T01:28:41;103019.50;;;10.25;100.00
70370;BME280;57790;51.356;-2.906;2023-02-02T01:31:41;103008.16;;;10.23;100.00
70370;BME280;57790;51.356;-2.906;2023-02-02T01:34:42;103016.97;;;10.24;100.00
70370;BME280;57790;51.356;-2.906;2023-02-02T01:37:42;103018.97;;;10.20;100.00
70370;BME280;57790;51.356;-2.906;2023-02-02T01:40:52;103013.66;;;10.20;100.00
70370;BME280;57790;51.356;-2.906;2023-02-02T01:44:04;103016.13;;;10.23;100.00
70370;BME280;57790;51.356;-2.906;2023-02-02T01:47:04;103008.28;;;10.22;100.00
70370;BME280;57790;51.356;-2.906;2023-02-02T01:50:08;103012.72;;;10.21;100.00
70370;BME280;57790;51.356;-2.906;2023-02-02T01:53:09;102996.91;;;10.20;100.00
70370;BME280;57790;51.356;-2.906;2023-02-02T01:56:14;103003.91;;;10.21;100.00
70370;BME280;57790;51.356;-2.906;2023-02-02T01:59:17;103001.34;;;10.19;100.00
70370;BME280;57790;51.356;-2.906;2023-02-02T02:02:18;102998.72;;;10.19;100.00
70370;BME280;57790;51.356;-2.906;2023-02-02T02:05:25;103010.25;;;10.18;100.00
70370;BME280;57790;51.356;-2.906;2023-02-02T02:08:29;103004.13;;;10.18;100.00
70370;BME280;57790;51.356;-2.906;2023-02-02T02:11:31;103006.88;;;10.16;100.00
70370;BME280;57790;51.356;-2.906;2023-02-02T02:14:32;103006.97;;;10.14;100.00
70370;BME280;57790;51.356;-2.906;2023-02-02T02:18:01;103023.53;;;10.18;100.00
70370;BME280;57790;51.356;-2.906;2023-02-02T02:25:30;103021.09;;;10.15;100.00
70370;BME280;57790;51.356;-2.906;2023-02-02T02:38:47;102995.53;;;10.14;100.00
70370;BME280;57790;51.356;-2.906;2023-02-02T02:41:54;102989.38;;;10.13;100.00
70370;BME280;57790;51.356;-2.906;2023-02-02T02:45:00;102990.22;;;10.14;100.00
70370;BME280;57790;51.356;-2.906;2023-02-02T02:48:02;102993.72;;;10.14;100.00
70370;BME280;57790;51.356;-2.906;2023-02-02T02:54:46;103001.78;;;10.13;100.00
70370;BME280;57790;51.356;-2.906;2023-02-02T02:58:04;103001.69;;;10.14;100.00
70370;BME280;57790;51.356;-2.906;2023-02-02T03:01:36;102993.72;;;10.14;100.00
70370;BME280;57790;51.356;-2.906;2023-02-02T03:07:50;102990.53;;;10.09;100.00
70370;BME280;57790;51.356;-2.906;2023-02-02T03:10:55;102989.38;;;10.13;100.00
70370;BME280;57790;51.356;-2.906;2023-02-02T03:13:57;102984.16;;;10.12;100.00
70370;BME280;57790;51.356;-2.906;2023-02-02T03:16:57;102984.16;;;10.12;100.00
70370;BME280;57790;51.356;-2.906;2023-02-02T03:19:58;102981.50;;;10.12;100.00
70370;BME280;57790;51.356;-2.906;2023-02-02T03:22:58;102985.13;;;10.11;100.00
70370;BME280;57790;51.356;-2.906;2023-02-02T03:25:59;102973.78;;;10.09;100.00
70370;BME280;57790;51.356;-2.906;2023-02-02T03:29:00;102981.50;;;10.12;100.00
70370;BME280;57790;51.356;-2.906;2023-02-02T03:32:00;102983.53;;;10.08;100.00
70370;BME280;57790;51.356;-2.906;2023-02-02T03:35:01;102976.53;;;10.07;100.00
70370;BME280;57790;51.356;-2.906;2023-02-02T03:38:01;102975.69;;;10.07;100.00
70370;BME280;57790;51.356;-2.906;2023-02-02T03:41:04;102980.25;;;10.05;100.00
70370;BME280;57790;51.356;-2.906;2023-02-02T03:44:04;102969.63;;;10.05;100.00
70370;BME280;57790;51.356;-2.906;2023-02-02T03:47:05;102965.28;;;10.04;100.00
70370;BME280;57790;51.356;-2.906;2023-02-02T03:50:06;102973.25;;;10.04;100.00
70370;BME280;57790;51.356;-2.906;2023-02-02T03:53:07;102964.56;;;10.02;100.00
70370;BME280;57790;51.356;-2.906;2023-02-02T03:56:07;102961.06;;;10.01;100.00
70370;BME280;57790;51.356;-2.906;2023-02-02T03:59:07;102967.19;;;10.02;100.00
70370;BME280;57790;51.356;-2.906;2023-02-02T04:02:08;102968.91;;;10.03;100.00
70370;BME280;57790;51.356;-2.906;2023-02-02T04:05:08;102970.69;;;10.02;100.00
70370;BME280;57790;51.356;-2.906;2023-02-02T04:08:09;102967.41;;;9.99;100.00
70370;BME280;57790;51.356;-2.906;2023-02-02T04:11:09;102975.16;;;10.02;100.00
70370;BME280;57790;51.356;-2.906;2023-02-02T04:14:10;102974.19;;;10.03;100.00
70370;BME280;57790;51.356;-2.906;2023-02-02T04:17:10;102969.97;;;10.00;100.00
70370;BME280;57790;51.356;-2.906;2023-02-02T04:20:11;102969.00;;;10.01;100.00
70370;BME280;57790;51.356;-2.906;2023-02-02T04:23:11;102966.56;;;9.98;100.00
70370;BME280;57790;51.356;-2.906;2023-02-02T04:26:12;102963.91;;;9.98;100.00
70370;BME280;57790;51.356;-2.906;2023-02-02T04:29:12;102962.00;;;10.00;100.00
70370;BME280;57790;51.356;-2.906;2023-02-02T04:32:17;102959.47;;;9.99;100.00
70370;BME280;57790;51.356;-2.906;2023-02-02T04:35:17;102962.75;;;10.02;100.00
70370;BME280;57790;51.356;-2.906;2023-02-02T04:38:18;102965.41;;;10.02;100.00
70370;BME280;57790;51.356;-2.906;2023-02-02T04:41:19;102967.31;;;10.00;100.00
70370;BME280;57790;51.356;-2.906;2023-02-02T04:44:20;102963.81;;;10.00;100.00
70370;BME280;57790;51.356;-2.906;2023-02-02T04:47:20;102968.06;;;10.02;100.00
70370;BME280;57790;51.356;-2.906;2023-02-02T04:50:20;102974.09;;;10.04;100.00
70370;BME280;57790;51.356;-2.906;2023-02-02T04:53:21;102977.81;;;10.02;100.00
70370;BME280;57790;51.356;-2.906;2023-02-02T04:56:21;102980.47;;;10.02;100.00
70370;BME280;57790;51.356;-2.906;2023-02-02T04:59:22;102977.81;;;10.02;100.00
70370;BME280;57790;51.356;-2.906;2023-02-02T05:02:22;102975.16;;;10.02;100.00
70370;BME280;57790;51.356;-2.906;2023-02-02T05:05:23;102980.34;;;10.03;100.00
70370;BME280;57790;51.356;-2.906;2023-02-02T05:08:23;102979.50;;;10.03;100.00
70370;BME280;57790;51.356;-2.906;2023-02-02T05:11:23;102977.81;;;10.02;100.00
70370;BME280;57790;51.356;-2.906;2023-02-02T05:14:24;102974.41;;;10.00;100.00
70370;BME280;57790;51.356;-2.906;2023-02-02T05:17:24;102971.75;;;10.00;100.00
70370;BME280;57790;51.356;-2.906;2023-02-02T05:20:25;102969.84;;;10.02;100.00
70370;BME280;57790;51.356;-2.906;2023-02-02T05:23:26;102973.34;;;10.02;100.00
70370;BME280;57790;51.356;-2.906;2023-02-02T05:26:26;102972.41;;;10.03;100.00
70370;BME280;57790;51.356;-2.906;2023-02-02T05:29:28;102977.59;;;10.05;100.00
70370;BME280;57790;51.356;-2.906;2023-02-02T05:32:28;102975.03;;;10.03;100.00
70370;BME280;57790;51.356;-2.906;2023-02-02T05:35:29;102978.53;;;10.04;100.00
70370;BME280;57790;51.356;-2.906;2023-02-02T05:38:29;102980.25;;;10.05;100.00
70370;BME280;57790;51.356;-2.906;2023-02-02T05:41:29;102977.59;;;10.05;100.00
70370;BME280;57790;51.356;-2.906;2023-02-02T05:44:30;102973.97;;;10.06;100.00
70370;BME280;57790;51.356;-2.906;2023-02-02T05:47:30;102984.69;;;10.04;100.00
70370;BME280;57790;51.356;-2.906;2023-02-02T05:50:31;102979.38;;;10.04;100.00
70370;BME280;57790;51.356;-2.906;2023-02-02T05:53:31;102977.59;;;10.05;100.00
70370;BME280;57790;51.356;-2.906;2023-02-02T05:56:32;102976.75;;;10.04;100.00
70370;BME280;57790;51.356;-2.906;2023-02-02T05:59:32;102975.03;;;10.03;100.00
70370;BME280;57790;51.356;-2.906;2023-02-02T06:02:33;102980.25;;;10.05;100.00
70370;BME280;57790;51.356;-2.906;2023-02-02T06:05:33;102979.28;;;10.06;100.00
70370;BME280;57790;51.356;-2.906;2023-02-02T06:08:34;102983.84;;;10.04;100.00
70370;BME280;57790;51.356;-2.906;2023-02-02T06:11:35;102987.22;;;10.06;100.00
70370;BME280;57790;51.356;-2.906;2023-02-02T06:14:35;102981.09;;;10.05;100.00
70370;BME280;57790;51.356;-2.906;2023-02-02T06:17:36;102984.69;;;10.04;100.00
70370;BME280;57790;51.356;-2.906;2023-02-02T06:20:36;102968.69;;;10.06;100.00
70370;BME280;57790;51.356;-2.906;2023-02-02T06:23:37;102982.78;;;10.06;100.00
70370;BME280;57790;51.356;-2.906;2023-02-02T06:26:37;102980.88;;;10.08;100.00
70370;BME280;57790;51.356;-2.906;2023-02-02T06:29:38;102978.22;;;10.08;100.00
70370;BME280;57790;51.356;-2.906;2023-02-02T06:32:38;102975.28;;;10.13;100.00
70370;BME280;57790;51.356;-2.906;2023-02-02T06:35:39;102978.78;;;10.13;100.00
70370;BME280;57790;51.356;-2.906;2023-02-02T06:38:39;102976.22;;;10.12;100.00
70370;BME280;57790;51.356;-2.906;2023-02-02T06:41:40;102979.72;;;10.12;100.00
70370;BME280;57790;51.356;-2.906;2023-02-02T06:44:40;102982.34;;;10.12;100.00
70370;BME280;57790;51.356;-2.906;2023-02-02T06:47:41;102988.44;;;10.14;100.00
70370;BME280;57790;51.356;-2.906;2023-02-02T06:50:41;102989.38;;;10.13;100.00
70370;BME280;57790;51.356;-2.906;2023-02-02T06:53:42;102992.09;;;10.12;100.00
70370;BME280;57790;51.356;-2.906;2023-02-02T06:56:42;103003.56;;;10.12;100.00
70370;BME280;57790;51.356;-2.906;2023-02-02T06:59:43;103010.59;;;10.13;100.00
70370;BME280;57790;51.356;-2.906;2023-02-02T07:02:44;102999.88;;;10.15;100.00
70370;BME280;57790;51.356;-2.906;2023-02-02T07:05:45;103006.97;;;10.14;100.00
70370;BME280;57790;51.356;-2.906;2023-02-02T07:08:47;103023.63;;;10.17;100.00
70370;BME280;57790;51.356;-2.906;2023-02-02T07:11:47;103006.97;;;10.14;100.00
70370;BME280;57790;51.356;-2.906;2023-02-02T07:14:48;103017.38;;;10.18;100.00
70370;BME280;57790;51.356;-2.906;2023-02-02T07:17:48;103020.88;;;10.18;100.00
70370;BME280;57790;51.356;-2.906;2023-02-02T07:20:49;103015.47;;;10.20;100.00
70370;BME280;57790;51.356;-2.906;2023-02-02T07:23:50;103018.22;;;10.18;100.00
70370;BME280;57790;51.356;-2.906;2023-02-02T07:26:50;103014.72;;;10.18;100.00
70370;BME280;57790;51.356;-2.906;2023-02-02T07:29:51;103009.19;;;10.21;100.00
70370;BME280;57790;51.356;-2.906;2023-02-02T07:32:52;103011.84;;;10.21;100.00
70370;BME280;57790;51.356;-2.906;2023-02-02T07:35:52;103011.78;;;10.22;100.00
70370;BME280;57790;51.356;-2.906;2023-02-02T07:38:53;103007.50;;;10.20;100.00
70370;BME280;57790;51.356;-2.906;2023-02-02T07:41:53;103009.97;;;10.23;100.00
70370;BME280;57790;51.356;-2.906;2023-02-02T07:44:54;103015.06;;;10.26;100.00
70370;BME280;57790;51.356;-2.906;2023-02-02T07:47:58;103016.22;;;10.22;100.00
70370;BME280;57790;51.356;-2.906;2023-02-02T07:51:03;103015.28;;;10.23;100.00
70370;BME280;57790;51.356;-2.906;2023-02-02T07:54:04;103028.25;;;10.27;100.00
70370;BME280;57790;51.356;-2.906;2023-02-02T07:57:05;103029.09;;;10.28;100.00
70370;BME280;57790;51.356;-2.906;2023-02-02T08:00:06;103022.06;;;10.27;100.00
70370;BME280;57790;51.356;-2.906;2023-02-02T08:03:10;103023.56;;;10.31;100.00
70370;BME280;57790;51.356;-2.906;2023-02-02T08:09:19;103030.69;;;10.30;100.00
70370;BME280;57790;51.356;-2.906;2023-02-02T08:12:19;103027.06;;;10.31;100.00
70370;BME280;57790;51.356;-2.906;2023-02-02T08:15:23;103034.06;;;10.32;100.00
70370;BME280;57790;51.356;-2.906;2023-02-02T08:18:24;103036.50;;;10.35;100.00
70370;BME280;57790;51.356;-2.906;2023-02-02T08:21:25;103038.19;;;10.36;100.00
70370;BME280;57790;51.356;-2.906;2023-02-02T08:24:26;103044.34;;;10.37;100.00
70370;BME280;57790;51.356;-2.906;2023-02-02T08:27:26;103046.06;;;10.38;100.00
70370;BME280;57790;51.356;-2.906;2023-02-02T08:30:26;103038.19;;;10.36;100.00
70370;BME280;57790;51.356;-2.906;2023-02-02T08:33:27;103064.50;;;10.39;100.00
70370;BME280;57790;51.356;-2.906;2023-02-02T08:36:29;103056.66;;;10.38;100.00
70370;BME280;57790;51.356;-2.906;2023-02-02T08:39:30;103062.69;;;10.40;100.00
70370;BME280;57790;51.356;-2.906;2023-02-02T08:42:30;103066.19;;;10.40;100.00
70370;BME280;57790;51.356;-2.906;2023-02-02T08:45:31;103067.03;;;10.41;100.00
70370;BME280;57790;51.356;-2.906;2023-02-02T08:48:32;103070.03;;;10.36;100.00
70370;BME280;57790;51.356;-2.906;2023-02-02T08:51:33;103073.22;;;10.41;100.00
70370;BME280;57790;51.356;-2.906;2023-02-02T08:54:34;103066.88;;;10.44;100.00
70370;BME280;57790;51.356;-2.906;2023-02-02T08:57:34;103062.31;;;10.46;100.00
70370;BME280;57790;51.356;-2.906;2023-02-02T09:00:35;103050.94;;;10.44;100.00
70370;BME280;57790;51.356;-2.906;2023-02-02T09:03:35;103053.72;;;10.42;100.00
70370;BME280;57790;51.356;-2.906;2023-02-02T09:06:40;103047.97;;;10.49;100.00
70370;BME280;57790;51.356;-2.906;2023-02-02T09:09:40;103054.97;;;10.50;100.00
70370;BME280;57790;51.356;-2.906;2023-02-02T09:12:40;103048.72;;;10.51;100.00
70370;BME280;57790;51.356;-2.906;2023-02-02T09:15:41;103056.03;;;10.47;100.00
70370;BME280;57790;51.356;-2.906;2023-02-02T09:18:42;103057.00;;;10.46;100.00
70370;BME280;57790;51.356;-2.906;2023-02-02T09:21:43;103042.69;;;10.49;100.00
70370;BME280;57790;51.356;-2.906;2023-02-02T09:24:43;103059.22;;;10.52;100.00
70370;BME280;57790;51.356;-2.906;2023-02-02T09:27:44;103057.41;;;10.53;100.00
70370;BME280;57790;51.356;-2.906;2023-02-02T09:30:44;103066.22;;;10.53;100.00
70370;BME280;57790;51.356;-2.906;2023-02-02T09:33:45;103059.44;;;10.49;100.00
70370;BME280;57790;51.356;-2.906;2023-02-02T09:36:45;103061.75;;;10.54;100.00
70370;BME280;57790;51.356;-2.906;2023-02-02T09:39:46;103068.75;;;10.55;100.00
70370;BME280;57790;51.356;-2.906;2023-02-02T09:42:56;103070.47;;;10.56;100.00
70370;BME280;57790;51.356;-2.906;2023-02-02T09:46:53;103076.53;;;10.58;100.00
70370;BME280;57790;51.356;-2.906;2023-02-02T09:56:05;103079.94;;;10.60;100.00
70370;BME280;57790;51.356;-2.906;2023-02-02T09:59:17;103076.44;;;10.59;100.00
70370;BME280;57790;51.356;-2.906;2023-02-02T10:02:43;103072.81;;;10.60;100.00
70370;BME280;57790;51.356;-2.906;2023-02-02T10:09:02;103073.44;;;10.64;100.00
70370;BME280;57790;51.356;-2.906;2023-02-02T10:15:38;103075.03;;;10.66;100.00
70370;BME280;57790;51.356;-2.906;2023-02-02T10:18:52;103076.63;;;10.69;100.00
70370;BME280;57790;51.356;-2.906;2023-02-02T10:22:11;103084.50;;;10.70;100.00
70370;BME280;57790;51.356;-2.906;2023-02-02T10:25:14;103088.75;;;10.73;100.00
70370;BME280;57790;51.356;-2.906;2023-02-02T10:28:19;103081.94;;;10.69;100.00
70370;BME280;57790;51.356;-2.906;2023-02-02T10:45:02;103108.28;;;10.72;100.00
70370;BME280;57790;51.356;-2.906;2023-02-02T10:48:13;103113.88;;;10.80;100.00
70370;BME280;57790;51.356;-2.906;2023-02-02T10:51:23;103105.28;;;10.77;100.00
70370;BME280;57790;51.356;-2.906;2023-02-02T10:55:10;103107.44;;;10.71;100.00
70370;BME280;57790;51.356;-2.906;2023-02-02T11:00:56;103119.41;;;10.90;100.00
70370;BME280;57790;51.356;-2.906;2023-02-02T11:03:57;103111.47;;;10.90;100.00
70370;BME280;57790;51.356;-2.906;2023-02-02T11:07:16;103107.41;;;10.97;100.00
70370;BME280;57790;51.356;-2.906;2023-02-02T11:10:19;103115.81;;;10.91;100.00
70370;BME280;57790;51.356;-2.906;2023-02-02T11:13:31;103111.25;;;10.93;100.00
70370;BME280;57790;51.356;-2.906;2023-02-02T11:16:43;103104.47;;;10.89;100.00
70370;BME280;57790;51.356;-2.906;2023-02-02T11:19:44;103114.97;;;10.90;100.00
70370;BME280;57790;51.356;-2.906;2023-02-02T11:22:45;103109.88;;;10.87;100.00
70370;BME280;57790;51.356;-2.906;2023-02-02T11:25:56;103113.38;;;10.88;100.00
70370;BME280;57790;51.356;-2.906;2023-02-02T11:28:57;103109.13;;;10.85;100.00
70370;BME280;57790;51.356;-2.906;2023-02-02T11:35:32;103100.00;;;11.02;100.00
70370;BME280;57790;51.356;-2.906;2023-02-02T11:38:32;103092.78;;;11.04;100.00
70370;BME280;57790;51.356;-2.906;2023-02-02T11:41:33;103099.16;;;11.01;100.00
70370;BME280;57790;51.356;-2.906;2023-02-02T11:44:37;103099.56;;;11.08;100.00
70370;BME280;57790;51.356;-2.906;2023-02-02T11:47:39;103095.53;;;11.02;100.00
70370;BME280;57790;51.356;-2.906;2023-02-02T11:50:51;103112.59;;;11.11;100.00
70370;BME280;57790;51.356;-2.906;2023-02-02T11:54:05;103096.16;;;11.06;100.00
70370;BME280;57790;51.356;-2.906;2023-02-02T11:57:14;103094.47;;;11.05;100.00
70370;BME280;57790;51.356;-2.906;2023-02-02T12:00:23;103095.75;;;10.99;100.00
70370;BME280;57790;51.356;-2.906;2023-02-02T12:03:35;103097.63;;;11.10;100.00
70370;BME280;57790;51.356;-2.906;2023-02-02T12:06:36;103080.25;;;11.06;100.00
70370;BME280;57790;51.356;-2.906;2023-02-02T12:09:37;103091.19;;;11.01;100.00
70370;BME280;57790;51.356;-2.906;2023-02-02T12:12:41;103084.38;;;10.97;100.00
70370;BME280;57790;51.356;-2.906;2023-02-02T12:19:29;103068.25;;;11.00;100.00
70370;BME280;57790;51.356;-2.906;2023-02-02T12:26:31;103072.59;;;11.14;100.00
70370;BME280;57790;51.356;-2.906;2023-02-02T12:33:09;103064.94;;;11.10;100.00
70370;BME280;57790;51.356;-2.906;2023-02-02T12:43:13;103065.47;;;11.15;100.00
70370;BME280;57790;51.356;-2.906;2023-02-02T12:53:19;103066.28;;;11.28;100.00
70370;BME280;57790;51.356;-2.906;2023-02-02T13:13:19;103058.22;;;11.29;100.00
70370;BME280;57790;51.356;-2.906;2023-02-02T13:16:23;103061.84;;;11.28;100.00
70370;BME280;57790;51.356;-2.906;2023-02-02T13:22:41;103057.03;;;11.33;100.00
70370;BME280;57790;51.356;-2.906;2023-02-02T13:25:49;103052.81;;;11.31;100.00
70370;BME280;57790;51.356;-2.906;2023-02-02T13:32:06;103055.97;;;11.36;100.00
70370;BME280;57790;51.356;-2.906;2023-02-02T13:35:19;103043.06;;;11.43;100.00
70370;BME280;57790;51.356;-2.906;2023-02-02T13:38:24;103055.19;;;11.47;100.00
70370;BME280;57790;51.356;-2.906;2023-02-02T13:41:25;103050.97;;;11.44;100.00
70370;BME280;57790;51.356;-2.906;2023-02-02T13:44:39;103040.34;;;11.44;100.00
70370;BME280;57790;51.356;-2.906;2023-02-02T13:47:49;103053.16;;;11.50;100.00
70370;BME280;57790;51.356;-2.906;2023-02-02T13:54:40;103059.13;;;11.41;100.00
70370;BME280;57790;51.356;-2.906;2023-02-02T14:01:06;103052.78;;;11.44;100.00
70370;BME280;57790;51.356;-2.906;2023-02-02T14:04:21;103049.34;;;11.42;100.00
70370;BME280;57790;51.356;-2.906;2023-02-02T14:07:43;103042.53;;;11.50;100.00
70370;BME280;57790;51.356;-2.906;2023-02-02T14:10:57;103038.66;;;11.43;100.00
70370;BME280;57790;51.356;-2.906;2023-02-02T14:14:17;103040.97;;;11.48;100.00
70370;BME280;57790;51.356;-2.906;2023-02-02T14:20:46;103041.69;;;11.50;100.00
70370;BME280;57790;51.356;-2.906;2023-02-02T14:23:52;103050.16;;;11.55;100.00
70370;BME280;57790;51.356;-2.906;2023-02-02T14:30:19;103046.78;;;11.53;100.00
70370;BME280;57790;51.356;-2.906;2023-02-02T14:36:21;103040.19;;;11.58;100.00
70370;BME280;57790;51.356;-2.906;2023-02-02T14:39:25;103042.06;;;11.56;100.00
70370;BME280;57790;51.356;-2.906;2023-02-02T14:49:10;103045.50;;;11.58;100.00
70370;BME280;57790;51.356;-2.906;2023-02-02T14:52:20;103035.19;;;11.54;100.00
70370;BME280;57790;51.356;-2.906;2023-02-02T14:55:21;103030.72;;;11.54;100.00
70370;BME280;57790;51.356;-2.906;2023-02-02T14:58:33;103037.53;;;11.58;100.00
70370;BME280;57790;51.356;-2.906;2023-02-02T15:01:36;103034.34;;;11.53;100.00
70370;BME280;57790;51.356;-2.906;2023-02-02T15:04:37;103041.47;;;11.53;100.00
70370;BME280;57790;51.356;-2.906;2023-02-02T15:07:50;103034.34;;;11.53;100.00
70370;BME280;57790;51.356;-2.906;2023-02-02T15:10:58;103048.47;;;11.54;100.00
70370;BME280;57790;51.356;-2.906;2023-02-02T15:14:04;103060.06;;;11.53;100.00
70370;BME280;57790;51.356;-2.906;2023-02-02T15:17:57;103070.78;;;11.51;100.00
70370;BME280;57790;51.356;-2.906;2023-02-02T15:20:48;103079.72;;;11.50;100.00
70370;BME280;57790;51.356;-2.906;2023-02-02T15:23:50;103068.88;;;11.53;100.00
70370;BME280;57790;51.356;-2.906;2023-02-02T15:26:51;103064.28;;;11.55;100.00
70370;BME280;57790;51.356;-2.906;2023-02-02T15:30:01;103067.06;;;11.54;100.00
70370;BME280;57790;51.356;-2.906;2023-02-02T15:33:10;103076.97;;;11.52;100.00
70370;BME280;57790;51.356;-2.906;2023-02-02T15:36:22;103073.97;;;11.56;100.00
70370;BME280;57790;51.356;-2.906;2023-02-02T15:42:40;103077.19;;;11.49;100.00
70370;BME280;57790;51.356;-2.906;2023-02-02T15:45:59;103064.13;;;11.46;100.00
70370;BME280;57790;51.356;-2.906;2023-02-02T15:49:33;103072.22;;;11.44;100.00
70370;BME280;57790;51.356;-2.906;2023-02-02T15:52:44;103088.03;;;11.46;100.00
70370;BME280;57790;51.356;-2.906;2023-02-02T15:55:46;103072.28;;;11.43;100.00
70370;BME280;57790;51.356;-2.906;2023-02-02T15:58:48;103066.13;;;11.42;100.00
70370;BME280;57790;51.356;-2.906;2023-02-02T16:02:36;103080.25;;;11.43;100.00
70370;BME280;57790;51.356;-2.906;2023-02-02T16:05:43;103071.25;;;11.45;100.00
70370;BME280;57790;51.356;-2.906;2023-02-02T16:08:46;103073.91;;;11.45;100.00
70370;BME280;57790;51.356;-2.906;2023-02-02T16:11:49;103071.97;;;11.47;100.00
70370;BME280;57790;51.356;-2.906;2023-02-02T16:14:51;103067.88;;;11.43;100.00
70370;BME280;57790;51.356;-2.906;2023-02-02T16:18:13;103069.75;;;11.41;100.00
70370;BME280;57790;51.356;-2.906;2023-02-02T16:21:22;103053.81;;;11.41;100.00
70370;BME280;57790;51.356;-2.906;2023-02-02T16:24:47;103054.03;;;11.38;100.00
70370;BME280;57790;51.356;-2.906;2023-02-02T16:27:47;103062.84;;;11.39;100.00
70370;BME280;57790;51.356;-2.906;2023-02-02T16:30:49;103060.31;;;11.37;100.00
70370;BME280;57790;51.356;-2.906;2023-02-02T16:33:53;103062.97;;;11.37;100.00
70370;BME280;57790;51.356;-2.906;2023-02-02T16:37:03;103064.91;;;11.35;100.00
70370;BME280;57790;51.356;-2.906;2023-02-02T16:40:17;103071.16;;;11.34;100.00
70370;BME280;57790;51.356;-2.906;2023-02-02T16:43:27;103074.66;;;11.35;100.00
70370;BME280;57790;51.356;-2.906;2023-02-02T16:46:48;103073.81;;;11.34;100.00
70370;BME280;57790;51.356;-2.906;2023-02-02T16:49:49;103064.16;;;11.33;100.00
70370;BME280;57790;51.356;-2.906;2023-02-02T16:53:01;103068.28;;;11.37;100.00
70370;BME280;57790;51.356;-2.906;2023-02-02T16:56:03;103071.28;;;11.32;100.00
70370;BME280;57790;51.356;-2.906;2023-02-02T16:59:12;103075.75;;;11.32;100.00
70370;BME280;57790;51.356;-2.906;2023-02-02T17:05:27;103072.34;;;11.30;100.00
70370;BME280;57790;51.356;-2.906;2023-02-02T17:08:34;103077.66;;;11.30;100.00
70370;BME280;57790;51.356;-2.906;2023-02-02T17:11:35;103066.09;;;11.31;100.00
70370;BME280;57790;51.356;-2.906;2023-02-02T17:14:36;103070.66;;;11.29;100.00
70370;BME280;57790;51.356;-2.906;2023-02-02T17:17:36;103075.97;;;11.29;100.00
70370;BME280;57790;51.356;-2.906;2023-02-02T17:20:39;103069.03;;;11.26;100.00
70370;BME280;57790;51.356;-2.906;2023-02-02T17:23:40;103058.41;;;11.26;100.00
70370;BME280;57790;51.356;-2.906;2023-02-02T17:26:42;103062.03;;;11.25;100.00
70370;BME280;57790;51.356;-2.906;2023-02-02T17:29:44;103056.84;;;11.24;100.00
70370;BME280;57790;51.356;-2.906;2023-02-02T17:32:45;103049.00;;;11.22;100.00
70370;BME280;57790;51.356;-2.906;2023-02-02T17:35:46;103048.88;;;11.24;100.00
70370;BME280;57790;51.356;-2.906;2023-02-02T17:38:46;103053.44;;;11.22;100.00
70370;BME280;57790;51.356;-2.906;2023-02-02T17:41:47;103072.78;;;11.24;100.00
70370;BME280;57790;51.356;-2.906;2023-02-02T17:44:48;103076.38;;;11.23;100.00
70370;BME280;57790;51.356;-2.906;2023-02-02T17:47:49;103085.31;;;11.22;100.00
70370;BME280;57790;51.356;-2.906;2023-02-02T17:50:50;103083.84;;;11.18;100.00
70370;BME280;57790;51.356;-2.906;2023-02-02T17:53:50;103096.03;;;11.20;100.00
70370;BME280;57790;51.356;-2.906;2023-02-02T17:56:51;103096.16;;;11.19;100.00